createdAt,value
2019-05-18T00:00:05.624Z,0.00
2019-05-18T00:01:06.126Z,0.00
2019-05-18T00:02:06.499Z,0.00
2019-05-18T00:03:06.924Z,0.00
2019-05-18T00:04:07.352Z,0.00
2019-05-18T00:05:07.781Z,0.00
2019-05-18T00:06:08.211Z,0.00
2019-05-18T00:07:08.662Z,0.00
2019-05-18T00:08:09.076Z,0.00
2019-05-18T00:09:09.506Z,0.00
2019-05-18T00:10:09.937Z,0.00
2019-05-18T00:11:10.367Z,0.00
2019-05-18T00:12:10.799Z,0.00
2019-05-18T00:13:11.235Z,0.00
2019-05-18T00:14:11.661Z,0.00
2019-05-18T00:15:12.093Z,0.00
2019-05-18T00:16:12.523Z,0.00
2019-05-18T00:17:24.584Z,0.00
2019-05-18T00:18:13.384Z,0.00
2019-05-18T00:19:13.817Z,0.00
2019-05-18T00:20:14.246Z,0.00
2019-05-18T00:21:14.677Z,0.00
2019-05-18T00:22:15.170Z,0.00
2019-05-18T00:23:15.546Z,0.00
2019-05-18T00:24:15.974Z,0.00
2019-05-18T00:25:16.404Z,0.00
2019-05-18T00:26:16.834Z,0.00
2019-05-18T00:27:17.262Z,0.00
2019-05-18T00:28:17.699Z,0.00
2019-05-18T00:29:18.130Z,0.00
2019-05-18T00:30:18.559Z,0.00
2019-05-18T00:31:18.993Z,0.00
2019-05-18T00:32:19.423Z,0.00
2019-05-18T00:33:19.847Z,0.00
2019-05-18T00:34:20.289Z,0.00
2019-05-18T00:35:20.715Z,0.00
2019-05-18T00:36:21.155Z,0.00
2019-05-18T00:37:21.576Z,0.00
2019-05-18T00:38:22.007Z,0.00
2019-05-18T00:39:22.445Z,0.00
2019-05-18T00:40:22.879Z,0.00
2019-05-18T00:41:23.300Z,0.00
2019-05-18T00:42:23.735Z,0.00
2019-05-18T00:43:24.163Z,0.00
2019-05-18T00:44:24.596Z,0.00
2019-05-18T00:45:25.024Z,0.00
2019-05-18T00:46:25.455Z,0.00
2019-05-18T00:47:40.312Z,0.00
2019-05-18T00:48:26.318Z,0.00
2019-05-18T00:49:26.745Z,0.00
2019-05-18T00:50:27.184Z,0.00
2019-05-18T00:51:27.610Z,0.00
2019-05-18T00:52:28.041Z,0.00
2019-05-18T00:53:28.471Z,0.00
2019-05-18T00:54:28.905Z,0.00
2019-05-18T00:55:29.333Z,0.00
2019-05-18T00:56:29.771Z,0.00
2019-05-18T00:57:30.201Z,0.00
2019-05-18T00:58:30.627Z,0.00
2019-05-18T00:59:31.058Z,0.00
2019-05-18T01:00:31.488Z,0.00
2019-05-18T01:01:31.925Z,0.00
2019-05-18T01:02:32.353Z,0.00
2019-05-18T01:03:32.789Z,0.00
2019-05-18T01:04:33.219Z,0.00
2019-05-18T01:05:33.643Z,0.00
2019-05-18T01:06:34.074Z,0.00
2019-05-18T01:07:34.508Z,0.00
2019-05-18T01:08:34.940Z,0.00
2019-05-18T01:09:35.368Z,0.00
2019-05-18T01:10:35.808Z,0.00
2019-05-18T01:11:36.231Z,0.00
2019-05-18T01:12:36.667Z,0.00
2019-05-18T01:13:37.118Z,0.00
2019-05-18T01:14:37.527Z,0.00
2019-05-18T01:15:37.952Z,0.00
2019-05-18T01:16:38.383Z,0.00
2019-05-18T01:17:38.817Z,0.00
2019-05-18T01:18:39.250Z,0.00
2019-05-18T01:19:39.676Z,0.00
2019-05-18T01:20:40.107Z,0.00
2019-05-18T01:21:40.537Z,0.00
2019-05-18T01:22:40.975Z,0.00
2019-05-18T01:23:41.402Z,0.00
2019-05-18T01:24:41.834Z,0.00
2019-05-18T01:25:42.259Z,0.00
2019-05-18T01:26:42.692Z,0.00
2019-05-18T01:27:43.121Z,0.00
2019-05-18T01:28:43.552Z,0.00
2019-05-18T01:29:43.983Z,0.00
2019-05-18T01:30:44.413Z,0.00
2019-05-18T01:31:44.843Z,0.00
2019-05-18T01:32:45.281Z,0.00
2019-05-18T01:33:45.704Z,0.00
2019-05-18T01:34:46.132Z,0.00
2019-05-18T01:35:46.569Z,0.00
2019-05-18T01:36:46.995Z,0.00
2019-05-18T01:37:47.429Z,0.00
2019-05-18T01:38:47.857Z,0.00
2019-05-18T01:39:48.288Z,0.00
2019-05-18T01:40:48.721Z,0.00
2019-05-18T01:41:49.148Z,0.00
2019-05-18T01:42:49.579Z,0.00
2019-05-18T01:43:50.010Z,0.00
2019-05-18T01:44:50.453Z,0.00
2019-05-18T01:45:50.871Z,0.00
2019-05-18T01:46:51.305Z,0.00
2019-05-18T01:47:51.736Z,0.00
2019-05-18T01:48:52.162Z,0.00
2019-05-18T01:49:52.611Z,0.00
2019-05-18T01:50:53.024Z,0.00
2019-05-18T01:51:53.462Z,0.00
2019-05-18T01:52:53.880Z,0.00
2019-05-18T01:53:54.312Z,0.00
2019-05-18T01:54:54.746Z,0.00
2019-05-18T01:55:55.180Z,0.00
2019-05-18T01:56:55.604Z,0.00
2019-05-18T01:57:56.038Z,0.00
2019-05-18T01:58:56.472Z,0.00
2019-05-18T01:59:56.897Z,0.00
2019-05-18T02:00:57.324Z,0.00
2019-05-18T02:01:57.762Z,0.00
2019-05-18T02:02:58.187Z,0.00
2019-05-18T02:03:58.629Z,0.00
2019-05-18T02:04:59.047Z,0.00
2019-05-18T02:05:59.477Z,0.00
2019-05-18T02:06:59.907Z,0.00
2019-05-18T02:08:00.339Z,0.00
2019-05-18T02:09:00.769Z,0.00
2019-05-18T02:10:01.200Z,0.00
2019-05-18T02:11:01.632Z,0.00
2019-05-18T02:12:02.057Z,0.00
2019-05-18T02:13:02.920Z,0.00
2019-05-18T02:14:02.935Z,0.00
2019-05-18T02:15:03.355Z,0.00
2019-05-18T02:16:03.791Z,0.00
2019-05-18T02:17:04.216Z,0.00
2019-05-18T02:18:04.649Z,0.00
2019-05-18T02:19:05.070Z,0.00
2019-05-18T02:20:05.505Z,0.00
2019-05-18T02:21:05.934Z,0.00
2019-05-18T02:22:06.366Z,0.00
2019-05-18T02:23:06.794Z,0.00
2019-05-18T02:24:07.241Z,0.00
2019-05-18T02:25:07.654Z,0.00
2019-05-18T02:26:08.081Z,0.00
2019-05-18T02:27:08.513Z,0.00
2019-05-18T02:28:08.946Z,4.00
2019-05-18T02:29:09.375Z,4.00
2019-05-18T02:30:09.842Z,4.00
2019-05-18T02:31:10.233Z,4.00
2019-05-18T02:32:10.663Z,0.00
2019-05-18T02:33:11.092Z,4.00
2019-05-18T02:34:11.524Z,4.00
2019-05-18T02:35:11.964Z,4.00
2019-05-18T02:36:12.385Z,8.00
2019-05-18T02:37:12.818Z,4.00
2019-05-18T02:38:13.277Z,8.00
2019-05-18T02:39:13.678Z,8.00
2019-05-18T02:40:14.144Z,8.00
2019-05-18T02:41:14.536Z,8.00
2019-05-18T02:42:14.967Z,12.00
2019-05-18T02:43:15.401Z,12.00
2019-05-18T02:44:15.827Z,12.00
2019-05-18T02:45:16.258Z,16.00
2019-05-18T02:46:16.699Z,20.00
2019-05-18T02:47:17.115Z,20.00
2019-05-18T02:48:17.562Z,24.00
2019-05-18T02:49:17.980Z,28.00
2019-05-18T02:50:18.407Z,28.00
2019-05-18T02:51:18.840Z,32.00
2019-05-18T02:52:19.280Z,36.00
2019-05-18T02:53:19.698Z,40.00
2019-05-18T02:54:20.125Z,44.00
2019-05-18T02:55:20.559Z,48.00
2019-05-18T02:56:20.990Z,56.00
2019-05-18T02:57:21.417Z,60.00
2019-05-18T02:58:21.853Z,68.00
2019-05-18T02:59:22.287Z,72.00
2019-05-18T03:00:22.714Z,80.00
2019-05-18T03:01:23.141Z,88.00
2019-05-18T03:02:23.566Z,96.00
2019-05-18T03:03:23.997Z,108.00
2019-05-18T03:04:24.426Z,116.00
2019-05-18T03:05:24.856Z,124.00
2019-05-18T03:06:25.296Z,136.00
2019-05-18T03:07:25.715Z,144.00
2019-05-18T03:08:26.164Z,160.00
2019-05-18T03:09:26.577Z,172.00
2019-05-18T03:10:27.005Z,184.00
2019-05-18T03:11:27.442Z,192.00
2019-05-18T03:12:27.906Z,212.00
2019-05-18T03:13:28.298Z,228.00
2019-05-18T03:14:28.721Z,240.00
2019-05-18T03:15:29.151Z,256.00
2019-05-18T03:16:29.589Z,276.00
2019-05-18T03:17:30.068Z,300.00
2019-05-18T03:18:30.451Z,320.00
2019-05-18T03:19:30.965Z,340.00
2019-05-18T03:20:31.312Z,360.00
2019-05-18T03:21:31.730Z,376.00
2019-05-18T03:22:32.160Z,396.00
2019-05-18T03:23:32.594Z,416.00
2019-05-18T03:24:33.036Z,440.00
2019-05-18T03:25:33.456Z,468.00
2019-05-18T03:26:33.878Z,492.00
2019-05-18T03:27:34.308Z,524.00
2019-05-18T03:28:34.746Z,548.00
2019-05-18T03:29:35.170Z,584.00
2019-05-18T03:30:35.593Z,612.00
2019-05-18T03:31:36.032Z,644.00
2019-05-18T03:32:36.468Z,672.00
2019-05-18T03:33:36.888Z,704.00
2019-05-18T03:34:37.315Z,732.00
2019-05-18T03:35:37.803Z,760.00
2019-05-18T03:36:38.179Z,788.00
2019-05-18T03:37:38.603Z,816.00
2019-05-18T03:38:39.042Z,848.00
2019-05-18T03:39:39.475Z,880.00
2019-05-18T03:40:39.895Z,912.00
2019-05-18T03:41:40.327Z,944.00
2019-05-18T03:42:40.752Z,980.00
2019-05-18T03:43:41.183Z,1012.00
2019-05-18T03:44:41.614Z,1044.00
2019-05-18T03:45:42.050Z,1076.00
2019-05-18T03:46:42.475Z,1104.00
2019-05-18T03:47:42.908Z,1132.00
2019-05-18T03:48:43.334Z,1156.00
2019-05-18T03:49:43.762Z,1196.00
2019-05-18T03:50:44.196Z,1228.00
2019-05-18T03:51:44.625Z,1256.00
2019-05-18T03:52:45.054Z,1292.00
2019-05-18T03:53:45.479Z,1320.00
2019-05-18T03:54:45.910Z,1352.00
2019-05-18T03:55:46.343Z,1384.00
2019-05-18T03:56:46.771Z,1412.00
2019-05-18T03:57:47.195Z,1448.00
2019-05-18T03:58:47.634Z,1480.00
2019-05-18T03:59:48.062Z,1524.00
2019-05-18T04:00:48.520Z,1556.00
2019-05-18T04:01:48.922Z,1584.00
2019-05-18T04:02:49.354Z,1616.00
2019-05-18T04:03:49.783Z,1644.00
2019-05-18T04:04:50.210Z,1664.00
2019-05-18T04:05:50.638Z,1680.00
2019-05-18T04:06:51.074Z,1708.00
2019-05-18T04:07:51.494Z,1740.00
2019-05-18T04:08:51.927Z,1768.00
2019-05-18T04:09:52.357Z,1788.00
2019-05-18T04:10:52.797Z,1804.00
2019-05-18T04:11:53.215Z,1816.00
2019-05-18T04:12:53.645Z,1816.00
2019-05-18T04:13:54.074Z,1776.00
2019-05-18T04:14:54.528Z,1752.00
2019-05-18T04:15:54.937Z,1772.00
2019-05-18T04:16:55.367Z,1796.00
2019-05-18T04:17:55.814Z,1788.00
2019-05-18T04:18:56.233Z,1764.00
2019-05-18T04:19:56.652Z,1740.00
2019-05-18T04:20:57.088Z,1732.00
2019-05-18T04:21:57.514Z,1744.00
2019-05-18T04:22:57.949Z,1776.00
2019-05-18T04:23:58.373Z,1804.00
2019-05-18T04:24:58.803Z,1852.00
2019-05-18T04:25:59.233Z,1900.00
2019-05-18T04:26:59.663Z,1956.00
2019-05-18T04:28:00.094Z,2008.00
2019-05-18T04:29:00.526Z,2116.00
2019-05-18T04:30:00.955Z,2172.00
2019-05-18T04:31:01.390Z,2196.00
2019-05-18T04:32:01.816Z,2160.00
2019-05-18T04:33:02.248Z,2012.00
2019-05-18T04:34:02.674Z,1924.00
2019-05-18T04:35:03.109Z,1948.00
2019-05-18T04:36:03.537Z,1992.00
2019-05-18T04:37:03.965Z,1968.00
2019-05-18T04:38:04.398Z,1908.00
2019-05-18T04:39:04.834Z,1856.00
2019-05-18T04:40:05.257Z,1816.00
2019-05-18T04:41:05.689Z,1700.00
2019-05-18T04:42:06.116Z,1700.00
2019-05-18T04:43:06.545Z,1616.00
2019-05-18T04:44:06.980Z,1564.00
2019-05-18T04:45:07.402Z,1560.00
2019-05-18T04:46:07.841Z,1568.00
2019-05-18T04:47:08.265Z,1580.00
2019-05-18T04:48:08.700Z,1600.00
2019-05-18T04:49:09.227Z,1628.00
2019-05-18T04:50:09.567Z,1660.00
2019-05-18T04:51:09.982Z,1676.00
2019-05-18T04:52:10.424Z,1696.00
2019-05-18T04:53:10.846Z,1720.00
2019-05-18T04:54:11.277Z,1764.00
2019-05-18T04:55:11.701Z,1828.00
2019-05-18T04:56:12.147Z,1904.00
2019-05-18T04:57:12.565Z,1964.00
2019-05-18T04:58:12.995Z,2080.00
2019-05-18T04:59:13.423Z,2232.00
2019-05-18T05:00:13.857Z,2352.00
2019-05-18T05:01:14.281Z,2412.00
2019-05-18T05:02:14.739Z,2600.00
2019-05-18T05:03:15.195Z,2700.00
2019-05-18T05:04:15.585Z,2772.00
2019-05-18T05:05:16.006Z,2904.00
2019-05-18T05:06:16.447Z,3080.00
2019-05-18T05:07:16.863Z,3304.00
2019-05-18T05:08:17.290Z,3344.00
2019-05-18T05:09:17.778Z,3356.00
2019-05-18T05:10:18.152Z,3300.00
2019-05-18T05:11:18.583Z,3328.00
2019-05-18T05:12:19.011Z,3348.00
2019-05-18T05:13:19.447Z,3496.00
2019-05-18T05:14:19.873Z,3628.00
2019-05-18T05:15:20.312Z,3668.00
2019-05-18T05:16:20.733Z,3652.00
2019-05-18T05:17:21.162Z,3652.00
2019-05-18T05:18:21.594Z,3708.00
2019-05-18T05:19:22.027Z,3720.00
2019-05-18T05:20:22.455Z,3844.00
2019-05-18T05:21:22.888Z,3852.00
2019-05-18T05:22:23.388Z,3896.00
2019-05-18T05:23:23.746Z,3964.00
2019-05-18T05:24:24.172Z,4028.00
2019-05-18T05:25:24.608Z,4024.00
2019-05-18T05:26:25.037Z,4016.00
2019-05-18T05:27:25.469Z,4004.00
2019-05-18T05:28:25.894Z,4092.00
2019-05-18T05:29:26.334Z,4124.00
2019-05-18T05:30:26.759Z,4092.00
2019-05-18T05:31:27.189Z,4232.00
2019-05-18T05:32:27.623Z,4192.00
2019-05-18T05:33:28.051Z,4240.00
2019-05-18T05:34:28.483Z,4280.00
2019-05-18T05:35:28.916Z,4292.00
2019-05-18T05:36:29.350Z,4300.00
2019-05-18T05:37:29.774Z,4392.00
2019-05-18T05:38:30.205Z,4456.00
2019-05-18T05:39:30.629Z,4432.00
2019-05-18T05:40:31.067Z,4476.00
2019-05-18T05:41:31.495Z,4492.00
2019-05-18T05:42:31.924Z,4516.00
2019-05-18T05:43:32.365Z,4528.00
2019-05-18T05:44:32.787Z,4636.00
2019-05-18T05:45:33.229Z,4640.00
2019-05-18T05:46:33.665Z,4588.00
2019-05-18T05:47:34.086Z,4696.00
2019-05-18T05:48:34.511Z,4756.00
2019-05-18T05:49:34.945Z,4768.00
2019-05-18T05:50:36.729Z,4828.00
2019-05-18T05:51:35.810Z,4908.00
2019-05-18T05:52:36.293Z,4904.00
2019-05-18T05:53:36.677Z,5000.00
2019-05-18T05:54:37.150Z,5072.00
2019-05-18T05:55:37.540Z,5104.00
2019-05-18T05:56:37.960Z,5228.00
2019-05-18T05:57:38.398Z,5296.00
2019-05-18T05:58:38.825Z,5372.00
2019-05-18T05:59:39.253Z,5452.00
2019-05-18T06:00:39.744Z,5632.00
2019-05-18T06:01:40.125Z,5748.00
2019-05-18T06:02:40.553Z,5928.00
2019-05-18T06:03:40.985Z,6072.00
2019-05-18T06:04:41.419Z,6308.00
2019-05-18T06:05:41.852Z,6456.00
2019-05-18T06:06:42.280Z,6664.00
2019-05-18T06:07:42.725Z,6900.00
2019-05-18T06:08:43.148Z,7072.00
2019-05-18T06:09:43.578Z,7300.00
2019-05-18T06:10:44.014Z,7580.00
2019-05-18T06:11:44.442Z,7888.00
2019-05-18T06:12:44.885Z,8048.00
2019-05-18T06:13:45.313Z,8328.00
2019-05-18T06:14:45.743Z,8616.00
2019-05-18T06:15:46.176Z,9028.00
2019-05-18T06:16:46.612Z,9284.00
2019-05-18T06:17:47.049Z,9448.00
2019-05-18T06:18:47.475Z,9832.00
2019-05-18T06:19:47.911Z,10020.00
2019-05-18T06:20:51.548Z,10180.00
2019-05-18T06:21:48.780Z,10464.00
2019-05-18T06:22:49.216Z,10784.00
2019-05-18T06:23:49.650Z,10956.00
2019-05-18T06:24:50.084Z,11280.00
2019-05-18T06:25:50.517Z,11440.00
2019-05-18T06:26:50.946Z,11500.00
2019-05-18T06:27:51.390Z,11632.00
2019-05-18T06:28:51.822Z,11640.00
2019-05-18T06:29:52.268Z,11748.00
2019-05-18T06:30:52.697Z,11708.00
2019-05-18T06:31:53.155Z,11712.00
2019-05-18T06:32:53.580Z,11884.00
2019-05-18T06:33:54.016Z,11868.00
2019-05-18T06:34:54.466Z,11860.00
2019-05-18T06:35:54.898Z,11912.00
2019-05-18T06:36:56.017Z,11924.00
2019-05-18T06:37:55.782Z,11972.00
2019-05-18T06:38:56.230Z,11872.00
2019-05-18T06:39:56.666Z,12056.00
2019-05-18T06:40:57.119Z,12060.00
2019-05-18T06:41:57.561Z,12044.00
2019-05-18T06:42:58.000Z,12100.00
2019-05-18T06:43:58.580Z,12184.00
2019-05-18T06:44:58.890Z,12232.00
2019-05-18T06:45:59.334Z,12228.00
2019-05-18T06:46:59.779Z,12352.00
2019-05-18T06:48:00.225Z,12444.00
2019-05-18T06:49:00.673Z,12804.00
2019-05-18T06:50:01.128Z,13480.00
2019-05-18T06:51:07.100Z,17728.00
2019-05-18T06:52:02.028Z,29696.00
2019-05-18T06:53:02.527Z,40352.00
2019-05-18T06:54:02.909Z,42624.00
2019-05-18T06:55:03.381Z,43968.00
2019-05-18T06:56:03.818Z,45856.00
2019-05-18T06:57:04.295Z,48320.00
2019-05-18T06:58:04.704Z,50208.00
2019-05-18T06:59:05.151Z,48192.00
2019-05-18T07:00:05.601Z,29792.00
2019-05-18T07:01:06.055Z,17216.00
2019-05-18T07:02:06.493Z,28352.00
2019-05-18T07:03:06.956Z,48544.00
2019-05-18T07:04:07.405Z,57696.00
2019-05-18T07:05:07.850Z,58656.00
2019-05-18T07:06:08.308Z,58240.00
2019-05-18T07:07:08.748Z,56576.00
2019-05-18T07:08:09.201Z,56416.00
2019-05-18T07:09:13.987Z,55456.00
2019-05-18T07:10:10.107Z,55200.00
2019-05-18T07:11:10.556Z,54304.00
2019-05-18T07:12:11.009Z,53632.00
2019-05-18T07:13:11.469Z,53152.00
2019-05-18T07:14:24.990Z,54176.00
2019-05-18T07:15:12.368Z,56608.00
2019-05-18T07:16:12.828Z,58912.00
2019-05-18T07:17:13.261Z,60000.00
2019-05-18T07:18:13.726Z,57568.00
2019-05-18T07:19:14.169Z,55296.00
2019-05-18T07:20:14.625Z,54496.00
2019-05-18T07:21:22.150Z,54464.00
2019-05-18T07:22:15.527Z,54048.00
2019-05-18T07:23:15.984Z,55872.00
2019-05-18T07:24:16.432Z,58496.00
2019-05-18T07:25:16.888Z,65248.00
2019-05-18T07:26:17.352Z,67712.00
2019-05-18T07:27:17.798Z,69792.00
2019-05-18T07:28:18.255Z,71584.00
2019-05-18T07:29:18.709Z,71872.00
2019-05-18T07:30:19.177Z,71168.00
2019-05-18T07:31:19.628Z,69600.00
2019-05-18T07:32:20.082Z,67168.00
2019-05-18T07:33:20.533Z,64096.00
2019-05-18T07:34:20.999Z,64576.00
2019-05-18T07:35:21.451Z,64544.00
2019-05-18T07:36:21.912Z,67616.00
2019-05-18T07:37:22.377Z,70720.00
2019-05-18T07:38:22.825Z,75776.00
2019-05-18T07:39:23.279Z,74208.00
2019-05-18T07:40:23.755Z,71232.00
2019-05-18T07:41:24.204Z,69568.00
2019-05-18T07:42:24.663Z,65056.00
2019-05-18T07:43:25.117Z,65184.00
2019-05-18T07:44:25.576Z,69920.00
2019-05-18T07:45:26.034Z,68224.00
2019-05-18T07:46:26.512Z,64480.00
2019-05-18T07:47:26.948Z,64480.00
2019-05-18T07:48:27.413Z,69088.00
2019-05-18T07:51:01.009Z,80448.00
2019-05-18T07:52:01.456Z,75552.00
2019-05-18T07:53:56.065Z,24864.00
2019-05-18T07:54:56.521Z,23104.00
2019-05-18T07:55:56.974Z,37504.00
2019-05-18T07:56:57.438Z,46464.00
2019-05-18T07:57:57.904Z,51392.00
2019-05-18T07:58:58.351Z,57152.00
2019-05-18T07:59:58.811Z,65216.00
2019-05-18T08:00:59.278Z,70368.00
2019-05-18T08:01:59.731Z,72896.00
2019-05-18T08:03:00.191Z,74496.00
2019-05-18T08:04:00.678Z,75040.00
2019-05-18T08:05:01.114Z,72576.00
2019-05-18T08:06:01.575Z,69088.00
2019-05-18T08:07:02.036Z,67648.00
2019-05-18T08:08:02.486Z,68576.00
2019-05-18T08:09:02.946Z,72384.00
2019-05-18T08:10:03.405Z,74560.00
2019-05-18T08:11:03.867Z,79360.00
2019-05-18T08:12:04.327Z,81728.00
2019-05-18T08:13:04.789Z,85664.00
2019-05-18T08:14:05.254Z,88096.00
2019-05-18T08:15:05.712Z,80384.00
2019-05-18T08:16:06.172Z,64288.00
2019-05-18T08:17:06.639Z,44480.00
2019-05-18T08:18:07.102Z,27968.00
2019-05-18T08:19:07.567Z,19712.00
2019-05-18T08:20:08.024Z,21056.00
2019-05-18T08:21:08.490Z,29760.00
2019-05-18T08:22:08.949Z,44128.00
2019-05-18T08:23:09.413Z,61792.00
2019-05-18T08:24:09.899Z,81536.00
2019-05-18T08:25:10.356Z,98464.00
2019-05-18T08:26:10.805Z,94816.00
2019-05-18T08:27:11.261Z,94560.00
2019-05-18T08:28:11.723Z,91936.00
2019-05-18T08:29:12.198Z,88832.00
2019-05-18T08:30:12.663Z,78176.00
2019-05-18T08:31:13.122Z,44544.00
2019-05-18T08:32:13.590Z,35648.00
2019-05-18T08:33:14.107Z,51840.00
2019-05-18T08:34:14.516Z,81440.00
2019-05-18T08:35:14.981Z,85536.00
2019-05-18T08:36:15.450Z,88096.00
2019-05-18T08:37:15.937Z,88160.00
2019-05-18T08:38:16.391Z,92448.00
2019-05-18T08:39:16.843Z,93952.00
2019-05-18T08:40:17.309Z,95808.00
2019-05-18T08:41:17.782Z,95648.00
2019-05-18T08:42:18.245Z,93728.00
2019-05-18T08:43:18.703Z,88960.00
2019-05-18T08:44:19.170Z,83328.00
2019-05-18T08:45:19.639Z,83680.00
2019-05-18T08:46:20.090Z,82080.00
2019-05-18T08:47:20.566Z,82304.00
2019-05-18T08:48:21.023Z,82240.00
2019-05-18T08:49:21.486Z,88128.00
2019-05-18T08:50:21.953Z,89760.00
2019-05-18T08:51:22.421Z,90912.00
2019-05-18T08:52:22.881Z,93248.00
2019-05-18T08:53:23.352Z,93536.00
2019-05-18T08:54:23.814Z,92992.00
2019-05-18T08:55:24.275Z,90912.00
2019-05-18T08:56:24.739Z,89632.00
2019-05-18T08:57:25.198Z,88736.00
2019-05-18T08:58:25.677Z,88992.00
2019-05-18T08:59:26.135Z,88832.00
2019-05-18T09:00:26.593Z,89952.00
2019-05-18T09:01:27.060Z,92768.00
2019-05-18T09:02:27.527Z,90464.00
2019-05-18T09:03:28.003Z,95680.00
2019-05-18T09:04:28.462Z,89536.00
2019-05-18T09:05:28.928Z,82944.00
2019-05-18T09:06:29.394Z,79968.00
2019-05-18T09:07:29.853Z,79712.00
2019-05-18T09:08:30.322Z,83584.00
2019-05-18T09:09:30.794Z,85152.00
2019-05-18T09:10:31.256Z,85760.00
2019-05-18T09:11:31.723Z,88960.00
2019-05-18T09:12:32.194Z,90976.00
2019-05-18T09:13:32.658Z,93504.00
2019-05-18T09:14:33.132Z,93088.00
2019-05-18T09:15:33.633Z,91520.00
2019-05-18T09:16:34.066Z,91744.00
2019-05-18T09:17:34.525Z,88544.00
2019-05-18T09:18:34.990Z,86048.00
2019-05-18T09:19:35.465Z,84128.00
2019-05-18T09:20:35.984Z,78176.00
2019-05-18T09:21:36.398Z,55936.00
2019-05-18T09:22:36.861Z,34592.00
2019-05-18T09:23:37.346Z,21984.00
2019-05-18T09:24:37.798Z,25696.00
2019-05-18T09:25:38.262Z,57088.00
2019-05-18T09:26:38.740Z,80064.00
2019-05-18T09:27:39.212Z,85088.00
2019-05-18T09:28:39.675Z,85568.00
2019-05-18T09:29:40.143Z,86976.00
2019-05-18T09:30:41.349Z,91264.00
2019-05-18T09:31:41.080Z,96992.00
2019-05-18T09:32:41.571Z,98400.00
2019-05-18T09:33:42.023Z,63392.00
2019-05-18T09:34:42.489Z,15032.00
2019-05-18T09:35:43.023Z,88576.00
2019-05-18T09:36:43.442Z,85664.00
2019-05-18T09:37:43.905Z,85504.00
2019-05-18T09:38:44.374Z,79776.00
2019-05-18T09:39:44.851Z,78176.00
2019-05-18T09:40:45.318Z,81856.00
2019-05-18T09:41:45.781Z,84160.00
2019-05-18T09:42:46.250Z,84864.00
2019-05-18T09:43:46.724Z,86688.00
2019-05-18T09:44:47.199Z,86784.00
2019-05-18T09:45:47.666Z,90592.00
2019-05-18T09:46:48.134Z,93824.00
2019-05-18T09:47:48.608Z,97056.00
2019-05-18T09:48:49.071Z,98976.00
2019-05-18T09:49:49.559Z,101696.00
2019-05-18T09:50:50.015Z,100576.00
2019-05-18T09:51:50.488Z,100928.00
2019-05-18T09:52:50.963Z,100896.00
2019-05-18T09:53:52.102Z,99328.00
2019-05-18T09:54:51.893Z,98848.00
2019-05-18T09:55:52.391Z,99744.00
2019-05-18T09:56:52.851Z,100096.00
2019-05-18T09:57:53.309Z,99008.00
2019-05-18T09:58:53.785Z,99968.00
2019-05-18T09:59:54.252Z,101152.00
2019-05-18T10:00:54.729Z,101376.00
2019-05-18T10:01:55.194Z,103648.00
2019-05-18T10:02:55.672Z,105472.00
2019-05-18T10:03:56.137Z,105280.00
2019-05-18T10:04:56.622Z,105984.00
2019-05-18T10:05:57.091Z,104608.00
2019-05-18T10:06:57.568Z,102880.00
2019-05-18T10:07:58.035Z,100672.00
2019-05-18T10:08:58.503Z,96992.00
2019-05-18T10:09:58.982Z,98528.00
2019-05-18T10:10:59.449Z,49760.00
2019-05-18T10:11:59.928Z,99808.00
2019-05-18T10:13:00.394Z,9040.00
2019-05-18T10:14:00.871Z,13288.00
2019-05-18T10:15:01.343Z,96352.00
2019-05-18T10:16:01.812Z,88128.00
2019-05-18T10:17:02.318Z,21216.00
2019-05-18T10:18:02.759Z,23424.00
2019-05-18T10:19:03.220Z,18912.00
2019-05-18T10:20:03.693Z,77632.00
2019-05-18T10:21:04.199Z,86144.00
2019-05-18T10:22:04.622Z,88096.00
2019-05-18T10:23:12.829Z,91872.00
2019-05-18T10:24:05.554Z,45056.00
2019-05-18T10:25:06.030Z,101952.00
2019-05-18T10:26:06.506Z,105760.00
2019-05-18T10:27:06.962Z,108128.00
2019-05-18T10:28:07.423Z,105632.00
2019-05-18T10:29:07.890Z,9252.00
2019-05-18T10:30:08.405Z,12248.00
2019-05-18T10:31:08.832Z,16372.00
2019-05-18T10:32:09.285Z,89440.00
2019-05-18T10:33:09.762Z,86336.00
2019-05-18T10:34:10.218Z,81504.00
2019-05-18T10:35:10.687Z,29248.00
2019-05-18T10:36:11.769Z,14192.00
2019-05-18T10:37:11.603Z,11944.00
2019-05-18T10:38:12.077Z,85504.00
2019-05-18T10:39:12.530Z,88736.00
2019-05-18T10:40:13.002Z,100064.00
2019-05-18T10:41:13.490Z,114080.00
2019-05-18T10:42:13.929Z,120512.00
2019-05-18T10:43:14.382Z,91488.00
2019-05-18T10:44:14.839Z,12656.00
2019-05-18T10:45:15.311Z,113536.00
2019-05-18T10:46:15.771Z,14232.00
2019-05-18T10:47:16.237Z,13496.00
2019-05-18T10:48:16.696Z,16440.00
2019-05-18T10:49:17.163Z,10148.00
2019-05-18T10:50:17.618Z,10116.00
2019-05-18T10:51:18.074Z,12120.00
2019-05-18T10:52:18.539Z,10572.00
2019-05-18T10:53:28.349Z,10204.00
2019-05-18T10:54:19.457Z,15264.00
2019-05-18T10:55:19.931Z,12812.00
2019-05-18T10:56:20.365Z,17536.00
2019-05-18T10:57:20.821Z,57664.00
2019-05-18T10:58:21.273Z,106176.00
2019-05-18T10:59:21.732Z,81024.00
2019-05-18T11:00:22.189Z,8828.00
2019-05-18T11:01:22.643Z,8492.00
2019-05-18T11:02:23.099Z,9112.00
2019-05-18T11:03:23.553Z,10936.00
2019-05-18T11:04:24.016Z,13796.00
2019-05-18T11:05:24.469Z,11980.00
2019-05-18T11:06:24.916Z,17888.00
2019-05-18T11:07:28.742Z,25376.00
2019-05-18T11:08:25.831Z,37056.00
2019-05-18T11:09:26.275Z,39648.00
2019-05-18T11:10:26.730Z,24544.00
2019-05-18T11:11:27.181Z,19648.00
2019-05-18T11:12:27.637Z,19616.00
2019-05-18T11:13:28.134Z,19776.00
2019-05-18T11:14:28.554Z,23104.00
2019-05-18T11:15:29.013Z,10616.00
2019-05-18T11:16:29.465Z,11096.00
2019-05-18T11:17:29.925Z,16480.00
2019-05-18T11:18:30.497Z,38208.00
2019-05-18T11:19:30.839Z,67232.00
2019-05-18T11:20:31.298Z,9964.00
2019-05-18T11:21:31.754Z,9852.00
2019-05-18T11:22:32.233Z,101344.00
2019-05-18T11:23:43.143Z,13572.00
2019-05-18T11:24:33.126Z,15692.00
2019-05-18T11:25:33.584Z,14572.00
2019-05-18T11:26:34.036Z,25152.00
2019-05-18T11:27:34.491Z,47168.00
2019-05-18T11:28:34.965Z,36864.00
2019-05-18T11:29:35.459Z,85184.00
2019-05-18T11:30:35.861Z,14912.00
2019-05-18T11:31:36.320Z,12892.00
2019-05-18T11:32:36.784Z,13504.00
2019-05-18T11:33:37.233Z,12808.00
2019-05-18T11:34:37.687Z,13776.00
2019-05-18T11:35:38.141Z,16496.00
2019-05-18T11:36:38.588Z,11124.00
2019-05-18T11:37:39.051Z,11508.00
2019-05-18T11:38:39.503Z,15580.00
2019-05-18T11:39:39.981Z,20064.00
2019-05-18T11:40:40.422Z,14496.00
2019-05-18T11:41:40.856Z,13472.00
2019-05-18T11:42:41.309Z,14556.00
2019-05-18T11:43:41.760Z,13812.00
2019-05-18T11:44:42.212Z,14168.00
2019-05-18T11:45:42.666Z,11508.00
2019-05-18T11:46:43.116Z,13540.00
2019-05-18T11:47:43.564Z,13068.00
2019-05-18T11:48:44.026Z,12868.00
2019-05-18T11:49:44.623Z,9856.00
2019-05-18T11:50:44.913Z,10976.00
2019-05-18T11:52:39.519Z,11612.00
2019-05-18T11:53:39.958Z,12116.00
2019-05-18T11:55:34.560Z,12056.00
2019-05-18T11:56:35.002Z,12024.00
2019-05-18T11:58:30.581Z,13504.00
2019-05-18T11:59:31.025Z,14320.00
2019-05-18T12:01:25.626Z,15236.00
2019-05-18T12:02:26.066Z,13408.00
2019-05-18T12:04:20.667Z,12152.00
2019-05-18T12:05:21.108Z,13372.00
2019-05-18T12:07:16.697Z,14736.00
2019-05-18T12:08:17.152Z,13828.00
2019-05-18T12:10:12.762Z,10312.00
2019-05-18T12:11:13.162Z,9072.00
2019-05-18T12:12:13.607Z,9284.00
2019-05-18T12:13:14.049Z,10352.00
2019-05-18T12:14:14.505Z,9688.00
2019-05-18T12:15:14.952Z,9136.00
2019-05-18T12:16:17.419Z,8440.00
2019-05-18T12:17:15.850Z,8176.00
2019-05-18T12:18:16.294Z,6976.00
2019-05-18T12:19:16.740Z,7348.00
2019-05-18T12:20:17.190Z,7336.00
2019-05-18T12:21:17.637Z,8988.00
2019-05-18T12:22:18.090Z,9700.00
2019-05-18T12:23:18.525Z,9724.00
2019-05-18T12:24:18.974Z,7848.00
2019-05-18T12:25:19.431Z,8932.00
2019-05-18T12:26:19.868Z,9648.00